Nicholls Rivulet, Australia

5:45 AM AEST on May 25, 2017 (GMT +1000)
At foot of Margate Tier | | Change Station

Elev 1188 ft 43.06 °S, 147.20 °E | Updated 48 seconds ago

Partly Cloudy
Partly Cloudy
47.0 °F
Feels Like 47 °F
N
0.0
Wind Variable Wind from SW
Gusts 2.0 mph

Today
High -- | Low -- °F
--% Chance of Precip.
Yesterday
High -- | Low -- °F
Precip. -- in
Pressure 29.89 in
Visibility 6.2 miles
Clouds Few 5000 ft
Mostly Cloudy 26000 ft
Windchill 47 °F
Dew Point 44 °F
Humidity 88%
Rainfall 0.00 in
Snow Depth Not available.
7:26 AM 4:49 PM
Waning Crescent, 2% visible
METAR YMHB 241930Z 33010KT 9999 FEW050 BKN260 11/06 Q1012 RF00.0/000.0
Pressure 29.89 in
Visibility 6.2 miles
Clouds Few 5000 ft
Mostly Cloudy 26000 ft
Windchill 47 °F
Dew Point 44 °F
Humidity 88%
Rainfall 0.00 in
Snow Depth Not available.
7:26 AM 4:49 PM
Waning Crescent, 2% visible
METAR YMHB 241930Z 33010KT 9999 FEW050 BKN260 11/06 Q1012 RF00.0/000.0

Get Severe Weather Alerts

Thanks for signing up!

Be on the lookout for a verification email in your inbox.

You'll start receiving the daily forecast at 6 AM.

×

10-Day Weather Forecast

×

Almanac

Astronomy

May. 25, 2017 Rise Set
Actual Time
Civil Twilight
Nautical Twilight
Astronomical Twilight
Moon
Length of Visible Light
Length of Day
Tomorrow will be .
, % of the Moon is Illuminated

Today's Extremes

Country Highs Country Lows

Community

WunderPhotos

Category 6

Welcome to Category 6. This is the collective home for Weather Underground's featured writeups by Dr. Jeff Masters (right), Bob Henson (left), Chris Burt, and other regular contributors.

Nearby

Air Quality

  Air Quality AQ Index Pollutant
Not available.

Snow Depth

Station Depth Elevation

Earthquake Activity

City Distance Mag. Time & Date
Minimum magnitude displayed is 2.5.

Coastal Water Temperatures

Place Temperature

Stations

Nearby Weather Stations

Station Location Temp. Windchill Dew Point Humidity Wind Precip. Elev Updated Type